Time;durP1;ratioP1;P1;durP2;ratioP2;P2;SDS_P1;SDS_P2;PMS_P1;PMS_P2;Temp;Humidity;BMP_temperature;BMP_pressure;BME280_temperature;BME280_humidity;BME280_pressure;Samples;Min_cycle;Max_cycle;Signal;HPM_P1;HPM_P2
2022/01/27 00:01:43;;;;;;;32.90;18.63;;;5.80;99.90;;;;;;5116816;27;20055;-77
2022/01/27 00:04:15;;;;;;;39.88;20.00;;;5.80;99.90;;;;;;5126100;27;20059;-75
2022/01/27 00:06:42;;;;;;;30.20;16.30;;;5.80;99.90;;;;;;5122429;27;20122;-75
2022/01/27 00:09:17;;;;;;;26.88;17.95;;;5.80;99.90;;;;;;5123380;27;20040;-76
2022/01/27 00:11:46;;;;;;;36.75;20.40;;;5.80;99.90;;;;;;5123527;27;20047;-77
2022/01/27 00:14:14;;;;;;;35.08;20.33;;;5.80;99.90;;;;;;5142039;27;20151;-77
2022/01/27 00:16:43;;;;;;;40.47;20.70;;;5.90;99.90;;;;;;5122323;27;20051;-76
2022/01/27 00:19:10;;;;;;;41.92;19.13;;;5.80;99.90;;;;;;5135969;27;20130;-77
2022/01/27 00:21:36;;;;;;;43.00;20.92;;;5.80;99.90;;;;;;5122004;27;20112;-77
2022/01/27 00:24:03;;;;;;;36.40;21.40;;;5.80;99.90;;;;;;5120256;27;20047;-78
2022/01/27 00:26:29;;;;;;;36.60;20.65;;;5.80;99.90;;;;;;5145399;27;20043;-76
2022/01/27 00:28:56;;;;;;;32.78;17.88;;;5.80;99.90;;;;;;5138305;27;20051;-77
2022/01/27 00:31:22;;;;;;;34.60;19.63;;;5.80;99.90;;;;;;5139529;27;20104;-78
2022/01/27 00:33:49;;;;;;;32.63;20.52;;;5.80;99.90;;;;;;5133782;27;20049;-76
2022/01/27 00:36:16;;;;;;;41.33;22.50;;;5.80;99.90;;;;;;5149752;27;20046;-77
2022/01/27 00:38:42;;;;;;;39.47;22.00;;;5.80;99.90;;;;;;5127584;27;20489;-76
2022/01/27 00:41:09;;;;;;;35.05;21.33;;;5.80;99.90;;;;;;5124739;27;20042;-77
2022/01/27 00:43:35;;;;;;;40.40;21.42;;;5.80;99.90;;;;;;5149185;27;20043;-77
2022/01/27 00:46:02;;;;;;;43.17;21.52;;;5.70;99.90;;;;;;5135097;27;20051;-77
2022/01/27 00:48:28;;;;;;;38.20;22.60;;;5.70;99.90;;;;;;5131751;27;20055;-77
2022/01/27 00:50:58;;;;;;;40.35;22.45;;;5.80;99.90;;;;;;5126993;27;20047;-77
2022/01/27 00:53:34;;;;;;;39.13;22.10;;;5.80;99.90;;;;;;5117063;27;20070;-79
2022/01/27 00:56:13;;;;;;;48.60;21.13;;;5.80;99.90;;;;;;5129393;27;20096;-78
2022/01/27 00:58:49;;;;;;;51.40;24.95;;;5.80;99.90;;;;;;5119407;27;20051;-77
2022/01/27 01:01:19;;;;;;;38.35;22.63;;;5.70;99.90;;;;;;5116925;27;20062;-77
2022/01/27 01:03:48;;;;;;;39.28;22.80;;;5.70;99.90;;;;;;5129731;27;20078;-78
2022/01/27 01:06:24;;;;;;;45.83;22.50;;;5.70;99.90;;;;;;5123435;27;20050;-77
2022/01/27 01:14:40;;;;;;;49.17;23.15;;;5.60;99.90;;;;;;5087675;28;20518;-77
2022/01/27 01:17:13;;;;;;;42.30;22.98;;;5.60;99.90;;;;;;5102948;27;20039;-77
2022/01/27 01:19:58;;;;;;;59.42;25.33;;;5.60;99.90;;;;;;5120709;27;20054;-77
2022/01/27 01:30:49;;;;;;;41.92;23.38;;;5.50;99.90;;;;;;5137539;27;20051;-76
2022/01/27 01:33:21;;;;;;;41.58;26.27;;;5.50;99.90;;;;;;5124710;27;20059;-78
2022/01/27 01:35:49;;;;;;;44.63;25.95;;;5.40;99.90;;;;;;5115904;27;20070;-78
2022/01/27 01:38:17;;;;;;;42.58;24.30;;;5.40;99.90;;;;;;5115609;27;20059;-78
2022/01/27 01:40:44;;;;;;;48.63;25.88;;;5.40;99.90;;;;;;5124533;27;20098;-77
2022/01/27 01:43:10;;;;;;;42.95;24.70;;;5.40;99.90;;;;;;5134148;27;20066;-77
2022/01/27 01:45:37;;;;;;;46.67;26.00;;;5.40;99.90;;;;;;5135910;27;20054;-77
2022/01/27 01:48:03;;;;;;;51.90;25.27;;;5.40;99.90;;;;;;5123126;27;20047;-78
2022/01/27 01:50:30;;;;;;;44.97;23.80;;;5.30;99.90;;;;;;5136247;27;20047;-78
2022/01/27 01:52:56;;;;;;;37.58;21.77;;;5.40;99.90;;;;;;5145176;27;20050;-77
2022/01/27 01:55:23;;;;;;;42.70;24.17;;;5.40;99.90;;;;;;5127888;27;20082;-77
2022/01/27 01:57:50;;;;;;;51.88;26.13;;;5.30;99.90;;;;;;5116838;27;20661;-77
2022/01/27 02:00:17;;;;;;;50.30;25.83;;;5.20;99.90;;;;;;5118843;27;20469;-77
2022/01/27 02:02:43;;;;;;;46.03;25.08;;;5.30;99.90;;;;;;5115305;27;20471;-76
2022/01/27 02:05:10;;;;;;;43.88;25.27;;;5.30;99.90;;;;;;5120327;27;20474;-77
2022/01/27 02:07:46;;;;;;;47.15;25.30;;;5.20;99.90;;;;;;5142976;27;20051;-78
2022/01/27 02:10:30;;;;;;;52.53;25.58;;;5.30;99.90;;;;;;5135886;27;20435;-78
2022/01/27 02:18:21;;;;;;;44.63;25.17;;;5.30;99.90;;;;;;5113597;27;20502;-77
2022/01/27 02:20:47;;;;;;;38.85;26.13;;;5.30;99.90;;;;;;5127969;27;20058;-77
2022/01/27 02:23:14;;;;;;;41.70;23.55;;;5.30;99.90;;;;;;5116518;27;20058;-77
2022/01/27 02:25:41;;;;;;;37.83;23.75;;;5.30;99.90;;;;;;5139028;27;20062;-78
2022/01/27 02:28:07;;;;;;;39.00;23.95;;;5.30;99.90;;;;;;5142660;27;20053;-78
2022/01/27 02:30:34;;;;;;;41.78;24.55;;;5.30;99.90;;;;;;5123188;27;20047;-79
2022/01/27 02:33:00;;;;;;;39.17;22.42;;;5.30;99.90;;;;;;5114856;27;20104;-78
2022/01/27 02:35:27;;;;;;;37.38;23.17;;;5.40;99.90;;;;;;5120900;27;20047;-77
2022/01/27 02:37:53;;;;;;;41.03;24.10;;;5.40;99.90;;;;;;5114803;27;20043;-78
2022/01/27 02:40:20;;;;;;;45.08;23.60;;;5.40;99.90;;;;;;5114944;27;20050;-78
2022/01/27 02:42:46;;;;;;;41.63;22.52;;;5.30;99.90;;;;;;5130860;27;20051;-78
2022/01/27 02:45:13;;;;;;;46.00;23.63;;;5.40;99.90;;;;;;5138735;27;20044;-78
2022/01/27 02:47:39;;;;;;;43.38;24.50;;;5.40;99.90;;;;;;5134253;27;20054;-78
2022/01/27 02:50:06;;;;;;;34.47;22.50;;;5.40;99.90;;;;;;5122450;27;20070;-78
2022/01/27 02:52:32;;;;;;;44.38;23.75;;;5.40;99.90;;;;;;5114966;27;20062;-76
2022/01/27 02:54:59;;;;;;;55.40;24.67;;;5.40;99.90;;;;;;5117959;27;20061;-77
2022/01/27 02:57:25;;;;;;;41.28;23.23;;;5.30;99.90;;;;;;5150091;27;20077;-78
2022/01/27 02:59:52;;;;;;;45.58;25.42;;;5.40;99.90;;;;;;5134109;27;20135;-78
2022/01/27 03:02:20;;;;;;;49.92;26.02;;;5.30;99.90;;;;;;5122521;27;20039;-77
2022/01/27 03:04:46;;;;;;;40.75;23.60;;;5.40;99.90;;;;;;5116103;27;20074;-77
2022/01/27 03:07:14;;;;;;;36.25;22.63;;;5.40;99.90;;;;;;5118461;27;20051;-78
2022/01/27 03:09:40;;;;;;;42.10;22.33;;;5.40;99.90;;;;;;5135364;27;20050;-77
2022/01/27 03:12:07;;;;;;;48.08;23.35;;;5.40;99.90;;;;;;5133215;27;20409;-78
2022/01/27 03:14:33;;;;;;;39.58;23.98;;;5.40;99.90;;;;;;5125551;27;20106;-77
2022/01/27 03:17:00;;;;;;;48.80;24.30;;;5.40;99.90;;;;;;5121467;27;20144;-77
2022/01/27 03:19:27;;;;;;;51.35;23.15;;;5.50;99.90;;;;;;5128779;27;20043;-77
2022/01/27 03:21:53;;;;;;;41.35;25.45;;;5.50;99.90;;;;;;5122656;27;20050;-78
2022/01/27 03:24:20;;;;;;;42.92;22.58;;;5.50;99.90;;;;;;5138222;27;20066;-78
2022/01/27 03:26:47;;;;;;;38.60;23.27;;;5.50;99.90;;;;;;5143618;27;20063;-77
2022/01/27 03:29:16;;;;;;;46.78;26.23;;;5.50;99.90;;;;;;5138818;27;20039;-76
2022/01/27 03:31:42;;;;;;;42.33;25.02;;;5.40;99.90;;;;;;5133527;27;20075;-78
2022/01/27 03:34:09;;;;;;;48.95;25.77;;;5.50;99.90;;;;;;5135329;27;20053;-76
2022/01/27 03:36:35;;;;;;;39.65;25.20;;;5.40;99.90;;;;;;5135853;27;20054;-77
2022/01/27 03:39:02;;;;;;;43.13;24.63;;;5.30;99.90;;;;;;5132915;27;20062;-77
2022/01/27 03:41:32;;;;;;;54.65;25.15;;;5.30;99.90;;;;;;5134157;27;20047;-78
2022/01/27 03:43:58;;;;;;;51.42;24.13;;;5.40;99.90;;;;;;5122291;28;20051;-76
2022/01/27 03:46:25;;;;;;;37.70;24.02;;;5.40;99.90;;;;;;5120638;27;20123;-77
2022/01/27 03:48:51;;;;;;;48.00;23.73;;;5.50;99.90;;;;;;5124097;27;20051;-77
2022/01/27 03:51:18;;;;;;;42.58;25.20;;;5.50;99.90;;;;;;5118927;27;20047;-77
2022/01/27 03:53:45;;;;;;;40.78;24.67;;;5.60;99.90;;;;;;5113775;28;20051;-78
2022/01/27 03:56:11;;;;;;;38.13;24.13;;;5.50;99.90;;;;;;5127508;27;20039;-77
2022/01/27 03:58:38;;;;;;;41.10;24.27;;;5.60;99.90;;;;;;5114618;27;20051;-77
2022/01/27 04:01:04;;;;;;;53.28;23.98;;;5.60;99.90;;;;;;5147782;27;20119;-77
2022/01/27 04:03:32;;;;;;;43.83;25.30;;;5.70;99.90;;;;;;5124185;27;20047;-77
2022/01/27 04:06:06;;;;;;;40.50;26.33;;;5.70;99.90;;;;;;5133093;27;20047;-77
2022/01/27 04:08:32;;;;;;;45.63;23.75;;;5.60;99.90;;;;;;5117605;27;20063;-77
2022/01/27 04:10:59;;;;;;;41.20;24.60;;;5.60;99.90;;;;;;5142503;27;20054;-77
2022/01/27 04:13:25;;;;;;;49.88;25.20;;;5.60;99.90;;;;;;5130388;27;20062;-77
2022/01/27 04:15:52;;;;;;;55.47;27.35;;;5.70;99.90;;;;;;5133181;27;20050;-78
2022/01/27 04:18:18;;;;;;;47.22;25.67;;;5.70;99.90;;;;;;5134934;27;20043;-77
2022/01/27 04:20:45;;;;;;;41.25;23.50;;;5.60;99.90;;;;;;5140596;27;20054;-78
2022/01/27 04:23:11;;;;;;;39.28;23.40;;;5.60;99.90;;;;;;5131470;27;20072;-78
2022/01/27 04:25:39;;;;;;;41.85;25.45;;;5.70;99.90;;;;;;5125480;27;20409;-77
2022/01/27 04:28:08;;;;;;;39.50;22.73;;;5.60;99.90;;;;;;5131179;27;20095;-77
2022/01/27 04:30:34;;;;;;;47.40;25.73;;;5.60;99.90;;;;;;5132238;27;20366;-77
2022/01/27 04:33:03;;;;;;;40.95;22.92;;;5.60;99.90;;;;;;5133600;27;20197;-78
2022/01/27 04:35:33;;;;;;;44.03;23.92;;;5.70;99.90;;;;;;5128055;27;20049;-77
2022/01/27 04:38:13;;;;;;;37.53;24.83;;;5.70;99.90;;;;;;5119803;27;20043;-77
2022/01/27 04:40:46;;;;;;;41.95;25.05;;;5.70;99.90;;;;;;5143048;27;20073;-76
2022/01/27 04:43:20;;;;;;;58.95;24.90;;;5.80;99.90;;;;;;5152855;27;20043;-76
2022/01/27 04:45:56;;;;;;;47.17;25.48;;;5.80;99.90;;;;;;5134896;27;20099;-78
2022/01/27 04:48:23;;;;;;;39.58;23.08;;;5.70;99.90;;;;;;5137088;27;20042;-77
2022/01/27 04:50:52;;;;;;;42.63;23.77;;;5.70;99.90;;;;;;5146101;27;20054;-78
2022/01/27 04:53:24;;;;;;;45.28;24.05;;;5.70;99.90;;;;;;5119629;27;20122;-77
2022/01/27 04:55:50;;;;;;;40.85;23.95;;;5.70;99.90;;;;;;5138763;27;20548;-76
2022/01/27 04:58:23;;;;;;;45.83;24.08;;;5.70;99.90;;;;;;5120429;27;20054;-77
2022/01/27 05:00:52;;;;;;;49.28;24.10;;;5.70;99.90;;;;;;5128342;27;20069;-77
2022/01/27 05:03:24;;;;;;;46.42;25.10;;;5.70;99.90;;;;;;5136155;27;20086;-76
2022/01/27 05:05:52;;;;;;;50.83;25.85;;;5.70;99.90;;;;;;5128513;27;20038;-78
2022/01/27 05:08:19;;;;;;;45.63;24.25;;;5.80;99.90;;;;;;5117803;27;20436;-77
2022/01/27 05:10:55;;;;;;;51.33;25.02;;;5.80;99.90;;;;;;5140694;27;20051;-78
2022/01/27 05:13:24;;;;;;;43.67;22.58;;;5.80;99.90;;;;;;5122893;27;20129;-77
2022/01/27 05:15:50;;;;;;;48.25;22.63;;;5.80;99.90;;;;;;5120892;27;20057;-77
2022/01/27 05:18:17;;;;;;;46.15;25.83;;;5.70;99.90;;;;;;5122041;27;20047;-77
2022/01/27 05:20:43;;;;;;;42.72;24.50;;;5.80;99.90;;;;;;5136453;27;20050;-79
2022/01/27 05:23:10;;;;;;;48.20;25.45;;;5.70;99.90;;;;;;5130749;27;20047;-78
2022/01/27 05:25:36;;;;;;;47.15;24.63;;;5.70;99.90;;;;;;5146773;27;20042;-76
2022/01/27 05:28:03;;;;;;;46.95;25.05;;;5.70;99.90;;;;;;5116043;27;20043;-76
2022/01/27 05:30:30;;;;;;;50.50;25.92;;;5.60;99.90;;;;;;5122912;27;20047;-77
2022/01/27 05:32:56;;;;;;;47.47;25.15;;;5.60;99.90;;;;;;5122627;27;20058;-76
2022/01/27 05:35:23;;;;;;;66.70;26.52;;;5.40;99.90;;;;;;5145759;27;20047;-77
2022/01/27 05:37:49;;;;;;;42.70;23.80;;;5.50;99.90;;;;;;5141978;27;20047;-77
2022/01/27 05:40:16;;;;;;;49.58;27.33;;;5.40;99.90;;;;;;5142083;27;20046;-77
2022/01/27 05:42:42;;;;;;;77.63;29.17;;;5.40;99.90;;;;;;5131088;27;20058;-77
2022/01/27 05:45:09;;;;;;;48.67;26.25;;;5.40;99.90;;;;;;5135243;27;20054;-77
2022/01/27 05:47:35;;;;;;;55.25;26.48;;;5.40;99.90;;;;;;5127609;27;20055;-77
2022/01/27 05:50:02;;;;;;;53.20;26.45;;;5.40;99.90;;;;;;5117150;27;20054;-78
2022/01/27 05:52:28;;;;;;;46.08;24.55;;;5.40;99.90;;;;;;5115773;27;20058;-76
2022/01/27 05:54:55;;;;;;;47.88;25.05;;;5.40;99.90;;;;;;5129442;27;20047;-78
2022/01/27 05:57:21;;;;;;;61.20;26.63;;;5.40;99.90;;;;;;5126491;27;20046;-78
2022/01/27 05:59:48;;;;;;;49.38;24.58;;;5.40;99.90;;;;;;5117159;27;20409;-78
2022/01/27 06:02:15;;;;;;;52.90;25.98;;;5.40;99.90;;;;;;5147756;27;20046;-78
2022/01/27 06:04:41;;;;;;;54.95;26.05;;;5.40;99.90;;;;;;5126974;27;20043;-78
2022/01/27 06:07:08;;;;;;;52.92;27.73;;;5.40;99.90;;;;;;5118114;27;20051;-77
2022/01/27 06:09:34;;;;;;;63.42;28.55;;;5.40;99.90;;;;;;5134500;27;20046;-77
2022/01/27 06:12:01;;;;;;;61.30;27.67;;;5.40;99.90;;;;;;5126778;27;20043;-78
2022/01/27 06:14:27;;;;;;;58.35;26.05;;;5.40;99.90;;;;;;5117913;27;20078;-78
2022/01/27 06:16:54;;;;;;;57.40;26.80;;;5.40;99.90;;;;;;5148720;27;20888;-78
2022/01/27 06:19:25;;;;;;;47.00;26.63;;;5.40;99.90;;;;;;5119152;27;20053;-78
2022/01/27 06:21:52;;;;;;;47.08;24.27;;;5.40;99.90;;;;;;5126375;27;20561;-79
2022/01/27 06:24:18;;;;;;;47.05;24.98;;;5.40;99.90;;;;;;5119084;27;20054;-78
2022/01/27 06:26:45;;;;;;;47.17;23.13;;;5.50;99.90;;;;;;5124968;27;20062;-78
2022/01/27 06:29:12;;;;;;;43.28;23.98;;;5.50;99.90;;;;;;5138016;27;20062;-78
2022/01/27 06:31:38;;;;;;;41.53;21.95;;;5.50;99.90;;;;;;5122927;27;20050;-77
2022/01/27 06:34:05;;;;;;;51.10;24.42;;;5.50;99.90;;;;;;5124364;27;20070;-78
2022/01/27 06:36:31;;;;;;;38.88;23.05;;;5.60;99.90;;;;;;5117730;27;20047;-79
2022/01/27 06:38:58;;;;;;;43.28;20.77;;;5.60;99.90;;;;;;5123430;27;20057;-79
2022/01/27 06:41:24;;;;;;;38.25;21.20;;;5.60;99.90;;;;;;5127585;27;20054;-77
2022/01/27 06:43:53;;;;;;;39.80;18.90;;;5.60;99.90;;;;;;5128456;27;20497;-78
2022/01/27 06:46:19;;;;;;;38.30;19.15;;;5.70;99.90;;;;;;5128769;27;20138;-78
2022/01/27 06:48:46;;;;;;;35.20;19.17;;;5.70;99.90;;;;;;5132723;27;20046;-78
2022/01/27 06:51:12;;;;;;;40.65;20.02;;;5.70;99.90;;;;;;5128302;27;20047;-79
2022/01/27 06:53:40;;;;;;;36.03;19.20;;;5.70;99.90;;;;;;5126584;27;20074;-78
2022/01/27 06:56:07;;;;;;;35.38;20.48;;;5.70;99.90;;;;;;5128891;27;20057;-78
2022/01/27 06:58:36;;;;;;;36.55;18.35;;;5.70;99.90;;;;;;5129556;27;20055;-77
2022/01/27 07:01:02;;;;;;;34.42;20.77;;;5.70;99.90;;;;;;5144446;27;20046;-77
2022/01/27 07:03:29;;;;;;;36.85;18.95;;;5.70;99.90;;;;;;5128632;27;20050;-78
2022/01/27 07:05:55;;;;;;;31.70;17.02;;;5.70;99.90;;;;;;5128374;27;20043;-78
2022/01/27 07:08:22;;;;;;;33.60;17.17;;;5.80;99.90;;;;;;5146871;27;20184;-77
2022/01/27 07:10:48;;;;;;;32.15;16.15;;;5.90;99.90;;;;;;5146150;27;20046;-79
2022/01/27 07:13:15;;;;;;;41.20;17.58;;;5.80;99.90;;;;;;5128081;27;20050;-78
2022/01/27 07:15:41;;;;;;;30.50;15.77;;;5.90;99.90;;;;;;5126373;27;20050;-79
2022/01/27 07:18:09;;;;;;;32.70;17.10;;;5.90;99.90;;;;;;5124893;27;20043;-79
2022/01/27 07:20:36;;;;;;;31.52;16.15;;;5.90;99.90;;;;;;5127879;27;20063;-79
2022/01/27 07:23:02;;;;;;;33.85;16.23;;;5.90;99.90;;;;;;5151141;27;20043;-79
2022/01/27 07:25:29;;;;;;;27.00;15.65;;;6.00;99.90;;;;;;5129077;27;20042;-79
2022/01/27 07:27:56;;;;;;;21.77;14.57;;;6.00;99.90;;;;;;5126247;27;20409;-79
2022/01/27 07:30:23;;;;;;;24.45;14.85;;;6.00;99.90;;;;;;5145281;27;20490;-80
2022/01/27 07:32:49;;;;;;;26.23;15.45;;;6.00;99.90;;;;;;5132746;27;20134;-80
2022/01/27 07:35:16;;;;;;;22.60;13.98;;;6.00;99.90;;;;;;5126359;27;20042;-79
2022/01/27 07:37:44;;;;;;;26.55;14.40;;;6.10;99.90;;;;;;5132008;27;20039;-79
2022/01/27 07:40:11;;;;;;;25.10;13.48;;;6.00;99.90;;;;;;5130484;27;20084;-79
2022/01/27 07:42:38;;;;;;;22.27;13.23;;;6.00;99.90;;;;;;5131167;27;20061;-79
2022/01/27 07:45:05;;;;;;;28.85;15.20;;;6.00;99.90;;;;;;5149818;27;20426;-79
2022/01/27 07:47:31;;;;;;;23.35;13.07;;;6.10;99.90;;;;;;5151164;27;20043;-79
2022/01/27 07:49:58;;;;;;;21.80;12.75;;;6.10;99.90;;;;;;5131329;27;20051;-79
2022/01/27 07:52:24;;;;;;;23.08;12.52;;;6.10;99.90;;;;;;5133968;27;20049;-79
2022/01/27 07:54:51;;;;;;;24.88;12.38;;;6.10;99.90;;;;;;5130455;27;20081;-79
2022/01/27 07:57:18;;;;;;;26.70;11.63;;;6.10;99.90;;;;;;5151686;27;20054;-79
2022/01/27 07:59:44;;;;;;;22.63;12.20;;;6.20;99.90;;;;;;5133417;27;20058;-79
2022/01/27 08:02:11;;;;;;;25.02;11.95;;;6.30;99.90;;;;;;5131398;27;20127;-79
2022/01/27 08:04:37;;;;;;;17.65;11.07;;;6.30;99.90;;;;;;5153022;27;20403;-79
2022/01/27 08:07:04;;;;;;;20.05;11.25;;;6.30;99.90;;;;;;5149782;27;20039;-79
2022/01/27 08:09:31;;;;;;;16.95;10.45;;;6.30;99.90;;;;;;5147934;27;20047;-79
2022/01/27 08:11:58;;;;;;;19.23;11.48;;;6.40;99.90;;;;;;5135703;27;20050;-80
2022/01/27 08:14:24;;;;;;;16.58;11.73;;;6.30;99.90;;;;;;5150786;27;20053;-79
2022/01/27 08:16:51;;;;;;;23.10;11.05;;;6.40;99.90;;;;;;5125555;27;20055;-79
2022/01/27 08:19:17;;;;;;;20.92;11.43;;;6.50;99.90;;;;;;5134608;27;20057;-80
2022/01/27 08:21:44;;;;;;;26.73;12.23;;;6.60;99.90;;;;;;5129133;27;20054;-78
2022/01/27 08:24:11;;;;;;;21.48;12.23;;;6.60;99.90;;;;;;5128351;27;20046;-79
2022/01/27 08:26:40;;;;;;;27.50;12.55;;;6.60;99.90;;;;;;5129815;27;20058;-78
2022/01/27 08:29:13;;;;;;;22.98;13.38;;;6.70;99.90;;;;;;5149841;27;20043;-78
2022/01/27 08:31:54;;;;;;;28.63;13.80;;;6.70;99.90;;;;;;5131439;27;20053;-79
2022/01/27 08:34:29;;;;;;;26.08;13.98;;;6.70;99.90;;;;;;5128890;27;20087;-78
2022/01/27 08:36:55;;;;;;;26.50;13.13;;;6.80;99.90;;;;;;5133498;27;20047;-78
2022/01/27 08:39:22;;;;;;;23.85;13.25;;;6.80;99.90;;;;;;5126730;27;20046;-77
2022/01/27 08:41:48;;;;;;;41.00;13.75;;;6.80;99.90;;;;;;5130522;27;20079;-79
2022/01/27 08:44:15;;;;;;;29.73;15.52;;;7.00;99.90;;;;;;5128213;27;20043;-79
2022/01/27 08:46:42;;;;;;;28.77;13.68;;;7.00;99.90;;;;;;5125149;27;20049;-78
2022/01/27 08:49:09;;;;;;;31.48;13.27;;;7.00;99.90;;;;;;5122019;27;20058;-79
2022/01/27 08:51:35;;;;;;;22.58;12.43;;;7.00;99.90;;;;;;5120221;27;20065;-78
2022/01/27 08:54:02;;;;;;;35.72;13.40;;;7.00;99.90;;;;;;5115968;27;20054;-80
2022/01/27 08:56:28;;;;;;;29.92;13.13;;;7.10;99.90;;;;;;5120486;27;20055;-79
2022/01/27 08:58:55;;;;;;;29.30;12.15;;;7.10;99.90;;;;;;5124378;27;20062;-78
2022/01/27 09:01:23;;;;;;;27.38;11.55;;;7.20;99.90;;;;;;5118348;27;20038;-79
2022/01/27 09:03:50;;;;;;;36.58;13.02;;;7.20;99.90;;;;;;5121118;27;20534;-78
2022/01/27 09:06:18;;;;;;;35.92;12.35;;;7.30;99.90;;;;;;5130426;27;20053;-78
2022/01/27 09:08:45;;;;;;;37.50;12.20;;;7.30;99.90;;;;;;5127813;27;20474;-79
2022/01/27 09:11:11;;;;;;;28.23;11.43;;;7.30;99.90;;;;;;5111082;27;20051;-79
2022/01/27 09:13:38;;;;;;;33.00;12.68;;;7.40;99.90;;;;;;5143354;27;20497;-78
2022/01/27 09:16:05;;;;;;;32.90;11.02;;;7.40;99.90;;;;;;5128260;27;20054;-80
2022/01/27 09:18:32;;;;;;;16.55;9.60;;;7.40;99.90;;;;;;5119721;27;20054;-79
2022/01/27 09:21:01;;;;;;;28.88;11.65;;;7.40;99.90;;;;;;5120536;27;20047;-78
2022/01/27 09:23:28;;;;;;;25.30;9.65;;;7.40;99.90;;;;;;5142427;27;20050;-78
2022/01/27 09:26:01;;;;;;;33.28;12.55;;;7.50;99.90;;;;;;5130654;27;20049;-79
2022/01/27 09:28:27;;;;;;;35.25;9.95;;;7.50;99.90;;;;;;5113771;27;20039;-77
2022/01/27 09:30:54;;;;;;;26.45;10.05;;;7.50;99.90;;;;;;5131857;27;20479;-79
2022/01/27 09:33:20;;;;;;;33.78;9.98;;;7.60;99.90;;;;;;5130341;27;20042;-78
2022/01/27 09:35:47;;;;;;;16.77;7.97;;;7.50;99.90;;;;;;5130895;27;20043;-79
2022/01/27 09:38:13;;;;;;;26.45;8.88;;;7.60;99.90;;;;;;5149019;27;20050;-78
2022/01/27 09:40:42;;;;;;;34.15;9.55;;;7.60;99.90;;;;;;5127356;27;20054;-79
2022/01/27 09:43:09;;;;;;;20.73;8.35;;;7.70;99.90;;;;;;5128788;27;20069;-78
2022/01/27 09:45:35;;;;;;;23.10;7.47;;;7.70;99.90;;;;;;5113169;27;20105;-79
2022/01/27 09:48:11;;;;;;;28.75;9.05;;;7.80;99.90;;;;;;5125043;27;20057;-78
2022/01/27 09:50:48;;;;;;;23.05;7.15;;;7.80;99.90;;;;;;5123013;27;20133;-78
2022/01/27 09:53:14;;;;;;;15.20;6.57;;;7.80;99.90;;;;;;5115451;27;20050;-78
2022/01/27 09:55:41;;;;;;;26.95;7.88;;;7.80;99.90;;;;;;5132175;27;20050;-78
2022/01/27 09:58:08;;;;;;;18.98;7.30;;;7.80;99.90;;;;;;5118201;27;20053;-78
2022/01/27 10:00:34;;;;;;;18.42;7.25;;;7.80;99.90;;;;;;5143055;27;20046;-78
2022/01/27 10:03:01;;;;;;;19.13;8.48;;;7.80;99.90;;;;;;5132582;27;20046;-78
2022/01/27 10:05:27;;;;;;;18.60;7.55;;;7.80;99.90;;;;;;5118806;27;20126;-78
2022/01/27 10:07:54;;;;;;;18.08;7.60;;;7.80;99.90;;;;;;5145948;27;20055;-78
2022/01/27 10:10:20;;;;;;;23.05;6.30;;;7.80;99.90;;;;;;5118335;27;20046;-78
2022/01/27 10:12:49;;;;;;;23.38;6.60;;;7.90;99.90;;;;;;5132268;27;20050;-78
2022/01/27 10:15:18;;;;;;;27.50;7.32;;;8.00;99.90;;;;;;5132805;27;20061;-78
2022/01/27 10:17:44;;;;;;;16.45;5.90;;;8.00;99.90;;;;;;5131418;27;20090;-78
2022/01/27 10:20:11;;;;;;;21.75;6.97;;;8.10;99.90;;;;;;5125936;27;20049;-78
2022/01/27 10:22:37;;;;;;;11.40;5.75;;;8.20;99.90;;;;;;5120919;27;20085;-78
2022/01/27 10:25:08;;;;;;;20.00;6.82;;;8.20;99.90;;;;;;5123602;27;20062;-78
2022/01/27 10:27:46;;;;;;;21.23;6.05;;;8.20;99.90;;;;;;5138695;27;20079;-78
2022/01/27 10:32:57;;;;;;;17.77;5.93;;;8.30;99.90;;;;;;5116147;27;20495;-78
2022/01/27 10:35:23;;;;;;;15.60;6.72;;;8.30;99.90;;;;;;5137020;27;20112;-78
2022/01/27 10:37:50;;;;;;;20.73;7.95;;;8.30;99.90;;;;;;5138193;27;20047;-78
2022/01/27 10:40:16;;;;;;;15.35;5.05;;;8.30;99.90;;;;;;5131734;27;20043;-77
2022/01/27 10:42:43;;;;;;;18.30;5.85;;;8.30;99.90;;;;;;5131325;27;20055;-78
2022/01/27 10:45:09;;;;;;;20.00;6.50;;;8.40;99.90;;;;;;5130109;27;20074;-78
2022/01/27 10:47:42;;;;;;;24.48;6.07;;;8.40;99.90;;;;;;5122710;27;20133;-78
2022/01/27 10:50:10;;;;;;;22.23;5.40;;;8.30;99.90;;;;;;5110937;27;20055;-78
2022/01/27 10:52:41;;;;;;;21.73;6.85;;;8.40;99.90;;;;;;5124138;27;20090;-78
2022/01/27 10:55:07;;;;;;;19.05;5.60;;;8.40;99.90;;;;;;5128968;27;20085;-78
2022/01/27 10:57:34;;;;;;;22.23;5.00;;;8.40;99.90;;;;;;5125530;27;20054;-79
2022/01/27 11:00:00;;;;;;;21.65;5.97;;;8.40;99.90;;;;;;5123548;27;20543;-79
2022/01/27 11:02:27;;;;;;;27.73;5.43;;;8.40;99.90;;;;;;5125559;27;20489;-79
2022/01/27 11:04:54;;;;;;;11.20;5.18;;;8.50;99.90;;;;;;5128375;27;20047;-78
2022/01/27 11:07:24;;;;;;;17.20;5.38;;;8.50;99.90;;;;;;5147882;27;20084;-78
2022/01/27 11:09:52;;;;;;;21.23;6.32;;;8.50;99.90;;;;;;5141231;27;20054;-78
2022/01/27 11:12:18;;;;;;;26.52;5.47;;;8.40;99.90;;;;;;5117679;27;20145;-79
2022/01/27 11:14:47;;;;;;;14.98;5.13;;;8.50;99.90;;;;;;5147341;27;20051;-79
2022/01/27 11:17:18;;;;;;;21.40;5.35;;;8.50;99.90;;;;;;5128569;27;20076;-79
2022/01/27 11:22:48;;;;;;;20.80;5.75;;;8.50;99.90;;;;;;5097082;27;20486;-79
2022/01/27 11:28:01;;;;;;;15.38;4.60;;;8.70;99.90;;;;;;5110389;27;20308;-79
2022/01/27 11:30:28;;;;;;;23.15;5.10;;;8.70;99.90;;;;;;5146487;27;20046;-79
2022/01/27 11:32:54;;;;;;;13.15;4.43;;;8.80;99.90;;;;;;5147797;27;20043;-79
2022/01/27 11:35:21;;;;;;;24.00;5.18;;;8.90;99.90;;;;;;5120782;27;20054;-79
2022/01/27 11:37:47;;;;;;;22.48;6.05;;;8.70;99.90;;;;;;5138121;27;20559;-78
2022/01/27 11:40:14;;;;;;;27.95;6.32;;;8.80;99.90;;;;;;5117674;27;20050;-79
2022/01/27 11:42:42;;;;;;;18.52;5.28;;;8.80;99.90;;;;;;5123529;27;20069;-78
2022/01/27 11:45:08;;;;;;;22.30;6.65;;;8.80;99.90;;;;;;5116680;27;20091;-78
2022/01/27 11:47:35;;;;;;;22.90;6.65;;;8.80;99.90;;;;;;5127538;27;20043;-78
2022/01/27 11:50:05;;;;;;;18.77;5.53;;;8.90;99.90;;;;;;5125924;28;20054;-78
2022/01/27 11:52:32;;;;;;;;;;;8.80;99.90;;;;;;5138226;27;20050;-78
2022/01/27 11:54:58;;;;;;;26.98;5.85;;;8.80;99.90;;;;;;5130612;27;19924;-78
2022/01/27 11:57:25;;;;;;;17.45;6.63;;;8.80;99.90;;;;;;5115356;27;20054;-79
2022/01/27 11:59:52;;;;;;;18.30;6.05;;;8.80;99.90;;;;;;5143530;27;20051;-79
2022/01/27 12:02:21;;;;;;;32.60;6.18;;;8.70;99.90;;;;;;5143179;27;20063;-79
2022/01/27 12:04:48;;;;;;;30.50;6.03;;;8.80;99.90;;;;;;5126263;27;20051;-78
2022/01/27 12:07:14;;;;;;;23.92;5.13;;;8.70;99.90;;;;;;5123525;27;20042;-78
2022/01/27 12:09:41;;;;;;;18.70;4.93;;;8.70;99.90;;;;;;5126774;27;20058;-78
2022/01/27 12:12:14;;;;;;;19.88;5.53;;;8.70;99.90;;;;;;5123755;27;20434;-79
2022/01/27 12:14:42;;;;;;;19.90;5.65;;;8.70;99.90;;;;;;5120804;27;20132;-78
2022/01/27 12:17:08;;;;;;;17.90;4.57;;;8.70;99.90;;;;;;5137087;27;20059;-78
2022/01/27 12:19:35;;;;;;;19.58;5.20;;;8.70;99.90;;;;;;5114936;27;20088;-78
2022/01/27 12:22:03;;;;;;;20.90;5.45;;;8.80;99.90;;;;;;5143278;27;20478;-78
2022/01/27 12:24:30;;;;;;;23.80;6.07;;;8.70;99.90;;;;;;5114776;27;20546;-78
2022/01/27 12:26:56;;;;;;;25.02;5.10;;;8.70;99.90;;;;;;5118696;27;20130;-78
2022/01/27 12:29:23;;;;;;;20.00;5.47;;;8.70;99.90;;;;;;5116473;27;20050;-78
2022/01/27 12:31:49;;;;;;;30.67;5.60;;;8.70;99.90;;;;;;5133417;27;20055;-78
2022/01/27 12:34:16;;;;;;;15.70;5.82;;;8.70;99.90;;;;;;5149876;27;20046;-79
2022/01/27 12:36:43;;;;;;;20.15;4.38;;;8.70;99.90;;;;;;5131218;27;20066;-78
2022/01/27 12:39:10;;;;;;;44.40;6.63;;;8.70;99.90;;;;;;5122072;27;20044;-78
2022/01/27 12:41:36;;;;;;;20.48;4.82;;;8.70;99.90;;;;;;5117052;27;20482;-78
2022/01/27 12:44:03;;;;;;;25.48;5.53;;;8.70;99.90;;;;;;5128446;27;20055;-78
2022/01/27 12:46:29;;;;;;;21.77;5.50;;;8.80;99.90;;;;;;5143130;27;20043;-78
2022/01/27 12:48:56;;;;;;;16.55;5.28;;;8.80;99.90;;;;;;5115805;27;20063;-78
2022/01/27 12:51:24;;;;;;;19.20;4.88;;;8.80;99.90;;;;;;5123085;27;20138;-78
2022/01/27 12:53:50;;;;;;;18.95;5.20;;;8.60;99.90;;;;;;5116637;27;20138;-79
2022/01/27 12:56:17;;;;;;;30.90;5.97;;;8.70;99.90;;;;;;5125823;27;20059;-78
2022/01/27 12:58:45;;;;;;;24.95;5.28;;;8.60;99.90;;;;;;5143061;27;20130;-78
2022/01/27 13:01:12;;;;;;;21.35;6.35;;;8.60;99.90;;;;;;5138998;27;20166;-78
2022/01/27 13:03:38;;;;;;;26.00;4.82;;;8.70;99.90;;;;;;5146779;27;20130;-79
2022/01/27 13:06:05;;;;;;;40.78;5.90;;;8.70;99.90;;;;;;5143892;27;20065;-78
2022/01/27 13:08:34;;;;;;;20.10;5.80;;;8.60;99.90;;;;;;5115466;27;21035;-78
2022/01/27 13:11:02;;;;;;;28.60;5.20;;;8.70;99.90;;;;;;5138293;27;20063;-78